Time;durP1;ratioP1;P1;durP2;ratioP2;P2;SDS_P1;SDS_P2;PMS_P1;PMS_P2;Temp;Humidity;BMP_temperature;BMP_pressure;BME280_temperature;BME280_humidity;BME280_pressure;Samples;Min_cycle;Max_cycle;Signal;HPM_P1;HPM_P2
2023/09/23 00:01:05;;;;;;;2.65;1.10;;;16.80;99.90;;;;;;5036656;28;20417;-70
2023/09/23 00:03:33;;;;;;;1.27;1.00;;;16.90;99.90;;;;;;5036597;28;20040;-70
2023/09/23 00:06:00;;;;;;;1.15;0.80;;;16.90;99.90;;;;;;5036534;28;20028;-69
2023/09/23 00:08:25;;;;;;;1.30;1.00;;;16.80;99.90;;;;;;5036201;28;20153;-68
2023/09/23 00:10:51;;;;;;;1.23;1.00;;;16.80;99.90;;;;;;5036653;28;20061;-68
2023/09/23 00:13:21;;;;;;;3.13;1.00;;;16.80;99.90;;;;;;5036378;28;20037;-69
2023/09/23 00:15:49;;;;;;;1.00;0.90;;;16.80;99.90;;;;;;5036233;28;20029;-70
2023/09/23 00:18:16;;;;;;;1.85;1.20;;;16.80;99.90;;;;;;5036018;28;20040;-70
2023/09/23 00:20:42;;;;;;;3.17;1.13;;;16.70;99.90;;;;;;5036351;28;20057;-70
2023/09/23 00:23:08;;;;;;;1.02;0.98;;;16.70;99.90;;;;;;5035947;28;20034;-72
2023/09/23 00:25:34;;;;;;;1.90;1.00;;;16.70;99.90;;;;;;5036042;28;20031;-70
2023/09/23 00:28:00;;;;;;;0.93;0.85;;;16.60;99.90;;;;;;5036146;28;20428;-70
2023/09/23 00:30:29;;;;;;;1.30;0.88;;;16.60;99.90;;;;;;5035444;28;20041;-70
2023/09/23 00:32:55;;;;;;;1.02;0.80;;;16.60;99.90;;;;;;5036032;28;20030;-70
2023/09/23 00:35:20;;;;;;;1.55;0.93;;;16.50;99.90;;;;;;5038192;28;20068;-70
2023/09/23 00:37:48;;;;;;;3.72;1.05;;;16.50;99.90;;;;;;5035765;28;20029;-70
2023/09/23 00:40:23;;;;;;;1.85;1.10;;;16.60;99.90;;;;;;5035522;28;20035;-70
2023/09/23 00:42:50;;;;;;;1.33;1.00;;;16.60;99.90;;;;;;5036264;28;20034;-70
2023/09/23 00:45:17;;;;;;;3.95;1.40;;;16.50;99.90;;;;;;5035418;28;20029;-70
2023/09/23 00:47:46;;;;;;;1.50;1.20;;;16.50;99.90;;;;;;5036060;28;20116;-70
2023/09/23 00:50:18;;;;;;;1.10;1.00;;;16.50;99.90;;;;;;5035459;28;20152;-70
2023/09/23 00:52:48;;;;;;;1.50;1.30;;;16.50;99.90;;;;;;5019173;28;20036;-70
2023/09/23 00:55:16;;;;;;;1.23;1.13;;;16.50;99.90;;;;;;5035435;28;20109;-70
2023/09/23 00:57:46;;;;;;;1.45;1.33;;;16.50;99.90;;;;;;5035541;28;20045;-70
2023/09/23 01:00:11;;;;;;;2.20;1.30;;;16.50;99.90;;;;;;5035233;28;20037;-71
2023/09/23 01:02:37;;;;;;;1.70;1.40;;;16.50;99.90;;;;;;5035600;28;20035;-70
2023/09/23 01:05:04;;;;;;;2.25;1.48;;;16.50;99.90;;;;;;5035306;28;20096;-70
2023/09/23 01:07:31;;;;;;;1.98;1.30;;;16.50;99.90;;;;;;5034620;28;20080;-70
2023/09/23 01:09:57;;;;;;;2.22;1.30;;;16.50;99.90;;;;;;5035062;28;20484;-70
2023/09/23 01:12:23;;;;;;;2.35;1.63;;;16.50;99.90;;;;;;5037301;28;20017;-70
2023/09/23 01:14:48;;;;;;;1.75;1.38;;;16.50;99.90;;;;;;5035630;28;20079;-70
2023/09/23 01:17:14;;;;;;;1.98;1.50;;;16.50;99.90;;;;;;5035037;28;20037;-70
2023/09/23 01:19:40;;;;;;;2.22;1.63;;;16.50;99.90;;;;;;5035286;28;20026;-70
2023/09/23 01:22:08;;;;;;;1.65;1.55;;;16.50;99.90;;;;;;5017201;28;20124;-70
2023/09/23 01:24:34;;;;;;;1.92;1.60;;;16.40;99.90;;;;;;5034671;28;20156;-70
2023/09/23 01:27:00;;;;;;;2.08;1.80;;;16.50;99.90;;;;;;5035106;28;20526;-70
2023/09/23 01:29:26;;;;;;;2.10;1.90;;;16.50;99.90;;;;;;5034696;28;20052;-70
2023/09/23 01:32:08;;;;;;;2.00;1.70;;;16.50;99.90;;;;;;5035104;28;20465;-70
2023/09/23 01:34:35;;;;;;;1.63;1.52;;;16.40;99.90;;;;;;5048359;28;20498;-69
2023/09/23 01:37:01;;;;;;;2.38;1.85;;;16.40;99.90;;;;;;5054946;28;20024;-69
2023/09/23 01:39:26;;;;;;;2.17;1.88;;;16.40;99.90;;;;;;5054254;28;20036;-70
2023/09/23 01:41:54;;;;;;;2.13;1.77;;;16.40;99.90;;;;;;5054788;28;20040;-69
2023/09/23 01:44:20;;;;;;;1.70;1.60;;;16.40;99.90;;;;;;5054251;28;20591;-70
2023/09/23 01:46:46;;;;;;;1.85;1.73;;;16.40;99.90;;;;;;5054403;28;20108;-69
2023/09/23 01:49:12;;;;;;;2.25;1.65;;;16.40;99.90;;;;;;5054583;28;20163;-70
2023/09/23 01:51:37;;;;;;;2.15;1.95;;;16.40;99.90;;;;;;5054198;28;20096;-69
2023/09/23 01:54:04;;;;;;;2.58;1.90;;;16.50;99.90;;;;;;5054658;28;20025;-70
2023/09/23 01:56:31;;;;;;;2.65;1.83;;;16.50;99.90;;;;;;5054044;28;20112;-70
2023/09/23 01:58:57;;;;;;;2.30;1.92;;;16.60;99.90;;;;;;5036537;28;20025;-69
2023/09/23 02:01:22;;;;;;;2.22;2.03;;;16.60;99.90;;;;;;5054036;28;20033;-70
2023/09/23 02:03:51;;;;;;;2.95;2.17;;;16.60;99.90;;;;;;5054361;28;20029;-69
2023/09/23 02:06:17;;;;;;;2.13;1.92;;;16.50;99.90;;;;;;5053871;28;20029;-70
2023/09/23 02:08:42;;;;;;;2.40;2.20;;;16.50;99.90;;;;;;5054301;28;20025;-69
2023/09/23 02:11:08;;;;;;;2.35;2.10;;;16.50;99.90;;;;;;5054556;28;20367;-69
2023/09/23 02:13:36;;;;;;;3.22;2.17;;;16.50;99.90;;;;;;5053574;28;20453;-69
2023/09/23 02:16:04;;;;;;;2.10;1.95;;;16.40;99.90;;;;;;5054086;28;20032;-69
2023/09/23 02:18:30;;;;;;;2.83;2.00;;;16.40;99.90;;;;;;5052706;28;20033;-69
2023/09/23 02:20:56;;;;;;;2.38;1.83;;;16.40;99.90;;;;;;5053614;28;20542;-69
2023/09/23 02:23:22;;;;;;;1.80;1.50;;;16.40;99.90;;;;;;5053224;28;20036;-70
2023/09/23 02:25:50;;;;;;;1.85;1.73;;;16.40;99.90;;;;;;5054018;28;20044;-69
2023/09/23 02:28:16;;;;;;;2.60;2.08;;;16.40;99.90;;;;;;5053864;28;20035;-69
2023/09/23 02:30:41;;;;;;;1.90;1.70;;;16.40;99.90;;;;;;5053483;28;20039;-69
2023/09/23 02:33:08;;;;;;;1.73;1.63;;;16.40;99.90;;;;;;5053807;28;20021;-70
2023/09/23 02:35:34;;;;;;;2.00;1.60;;;16.50;99.90;;;;;;5050111;28;20037;-69
2023/09/23 02:38:00;;;;;;;2.75;1.83;;;16.50;99.90;;;;;;5053758;28;20510;-70
2023/09/23 02:40:27;;;;;;;1.83;1.63;;;16.50;99.90;;;;;;5053145;28;20041;-70
2023/09/23 02:42:53;;;;;;;1.80;1.60;;;16.40;99.90;;;;;;5053820;28;20111;-69
2023/09/23 02:45:23;;;;;;;1.80;1.70;;;16.40;99.90;;;;;;5053190;28;20113;-70
2023/09/23 02:47:49;;;;;;;2.42;1.70;;;16.40;99.90;;;;;;5053268;28;20381;-69
2023/09/23 02:50:17;;;;;;;3.30;1.90;;;16.40;99.90;;;;;;5053527;28;20025;-69
2023/09/23 02:52:50;;;;;;;2.00;1.83;;;16.40;99.90;;;;;;5053067;28;20112;-69
2023/09/23 02:55:18;;;;;;;1.80;1.70;;;16.40;99.90;;;;;;5053462;28;20032;-69
2023/09/23 02:57:46;;;;;;;1.98;1.75;;;16.30;99.90;;;;;;5052984;28;20052;-69
2023/09/23 03:00:19;;;;;;;2.45;1.70;;;16.40;99.90;;;;;;5053292;28;20029;-70
2023/09/23 03:02:58;;;;;;;2.28;2.05;;;16.40;99.90;;;;;;5053270;28;20112;-70
2023/09/23 03:05:27;;;;;;;2.67;1.73;;;16.40;99.90;;;;;;5052952;28;20051;-70
2023/09/23 03:07:57;;;;;;;1.80;1.60;;;16.40;99.90;;;;;;5038032;28;20025;-70
2023/09/23 03:10:31;;;;;;;2.50;1.77;;;16.40;99.90;;;;;;5032904;28;20068;-70
2023/09/23 03:13:07;;;;;;;3.60;1.63;;;16.40;99.90;;;;;;5033189;28;20036;-70
2023/09/23 03:16:06;;;;;;;3.05;1.95;;;16.30;99.90;;;;;;5032841;28;20108;-69
2023/09/23 03:18:37;;;;;;;2.70;1.90;;;16.30;99.90;;;;;;5032681;28;20029;-70
2023/09/23 03:21:07;;;;;;;1.70;1.45;;;16.30;99.90;;;;;;5033074;28;20065;-69
2023/09/23 03:23:39;;;;;;;2.28;1.70;;;16.30;99.90;;;;;;5032747;28;20068;-70
2023/09/23 03:26:06;;;;;;;2.25;1.40;;;16.20;99.90;;;;;;5033150;28;20029;-70
2023/09/23 03:28:33;;;;;;;5.28;1.95;;;16.20;99.90;;;;;;5032524;28;20049;-70
2023/09/23 03:31:00;;;;;;;2.10;1.90;;;16.30;99.90;;;;;;5032493;28;20029;-69
2023/09/23 03:33:27;;;;;;;2.10;1.90;;;16.30;99.90;;;;;;5033502;28;20470;-70
2023/09/23 03:35:53;;;;;;;3.83;1.90;;;16.20;99.90;;;;;;5032901;28;20355;-70
2023/09/23 03:38:19;;;;;;;2.90;2.10;;;16.30;99.90;;;;;;5032874;28;20056;-70
2023/09/23 03:40:56;;;;;;;2.53;2.33;;;16.20;99.90;;;;;;5032329;28;20104;-70
2023/09/23 03:43:22;;;;;;;1.85;1.75;;;16.20;99.90;;;;;;5032947;28;20036;-69
2023/09/23 03:45:48;;;;;;;3.33;2.17;;;16.20;99.90;;;;;;5032734;28;20035;-70
2023/09/23 03:48:15;;;;;;;3.92;2.20;;;16.10;99.90;;;;;;5032681;28;20030;-70
2023/09/23 03:50:41;;;;;;;3.28;2.85;;;16.10;99.90;;;;;;5032073;28;20037;-70
2023/09/23 03:53:06;;;;;;;4.03;3.22;;;16.10;99.90;;;;;;5032663;28;20026;-70
2023/09/23 03:55:32;;;;;;;3.97;3.17;;;16.00;99.90;;;;;;5032283;28;20032;-70
2023/09/23 03:57:57;;;;;;;3.75;3.38;;;15.90;99.90;;;;;;5032737;28;20042;-70
2023/09/23 04:00:27;;;;;;;4.45;3.22;;;15.90;99.90;;;;;;5032496;28;20064;-72
2023/09/23 04:02:54;;;;;;;3.55;3.25;;;15.90;99.90;;;;;;5032581;28;20034;-70
2023/09/23 04:05:20;;;;;;;3.83;3.42;;;15.90;99.90;;;;;;5032305;28;20546;-70
2023/09/23 04:07:50;;;;;;;5.90;4.95;;;15.80;99.90;;;;;;5032155;28;20102;-70
2023/09/23 04:10:23;;;;;;;4.25;3.17;;;15.80;99.90;;;;;;5032602;28;20029;-70
2023/09/23 04:12:53;;;;;;;3.72;3.42;;;15.80;99.90;;;;;;5014548;28;20116;-70
2023/09/23 04:15:21;;;;;;;5.90;3.75;;;15.70;99.90;;;;;;5032393;28;20061;-70
2023/09/23 04:17:47;;;;;;;4.53;3.88;;;15.70;99.90;;;;;;5031715;28;20092;-70
2023/09/23 04:20:14;;;;;;;5.05;3.90;;;15.70;99.90;;;;;;5032315;28;20057;-70
2023/09/23 04:22:41;;;;;;;4.93;3.50;;;15.80;99.90;;;;;;5031990;28;20037;-70
2023/09/23 04:25:08;;;;;;;4.25;3.70;;;15.80;99.90;;;;;;5032306;28;20061;-70
2023/09/23 04:27:36;;;;;;;4.32;3.92;;;15.70;99.90;;;;;;5034146;28;20064;-70
2023/09/23 04:30:09;;;;;;;4.80;4.03;;;15.80;99.90;;;;;;5032369;28;20033;-70
2023/09/23 04:32:36;;;;;;;5.00;4.20;;;15.70;99.90;;;;;;5014378;28;20091;-70
2023/09/23 04:35:03;;;;;;;4.10;3.80;;;15.70;99.90;;;;;;5032459;28;20037;-70
2023/09/23 04:37:28;;;;;;;6.15;3.95;;;15.70;99.90;;;;;;5031552;28;20112;-70
2023/09/23 04:39:55;;;;;;;5.57;3.65;;;15.70;99.90;;;;;;5032015;28;20585;-70
2023/09/23 04:42:21;;;;;;;4.13;3.50;;;15.70;99.90;;;;;;5015937;28;20029;-70
2023/09/23 04:44:47;;;;;;;4.18;3.55;;;15.70;99.90;;;;;;5035605;28;20029;-71
2023/09/23 04:47:14;;;;;;;4.22;3.45;;;15.70;99.90;;;;;;5035932;28;20072;-70
2023/09/23 04:49:40;;;;;;;4.30;3.70;;;15.70;99.90;;;;;;5035469;28;20075;-70
2023/09/23 04:52:06;;;;;;;4.60;3.92;;;15.80;99.90;;;;;;5035615;28;20491;-70
2023/09/23 04:54:32;;;;;;;5.22;3.92;;;15.80;99.90;;;;;;5035371;28;20026;-70
2023/09/23 04:56:57;;;;;;;4.47;4.07;;;15.70;99.90;;;;;;5035480;28;20398;-70
2023/09/23 04:59:24;;;;;;;5.10;4.60;;;15.70;99.90;;;;;;5035923;28;20040;-70
2023/09/23 05:01:49;;;;;;;6.10;4.47;;;15.70;99.90;;;;;;5035310;28;20030;-70
2023/09/23 05:04:15;;;;;;;5.10;4.60;;;15.70;99.90;;;;;;5035874;28;20033;-69
2023/09/23 05:06:41;;;;;;;6.32;5.25;;;15.70;99.90;;;;;;5035153;28;20030;-69
2023/09/23 05:09:08;;;;;;;5.53;4.72;;;15.70;99.90;;;;;;5035630;28;20064;-71
2023/09/23 05:11:35;;;;;;;5.03;4.53;;;15.60;99.90;;;;;;5037406;28;20084;-71
2023/09/23 05:14:00;;;;;;;5.53;4.72;;;15.60;99.90;;;;;;5035572;28;20359;-70
2023/09/23 05:16:26;;;;;;;5.13;4.63;;;15.70;99.90;;;;;;5035064;28;20018;-70
2023/09/23 05:18:53;;;;;;;5.40;4.90;;;15.60;99.90;;;;;;5035197;28;20104;-70
2023/09/23 05:21:18;;;;;;;6.03;4.40;;;15.60;99.90;;;;;;5017751;28;20025;-71
2023/09/23 05:23:48;;;;;;;5.40;4.20;;;15.60;99.90;;;;;;5035068;28;20044;-71
2023/09/23 05:26:16;;;;;;;4.63;3.92;;;15.60;99.90;;;;;;5038836;28;20076;-70
2023/09/23 05:28:44;;;;;;;4.88;4.30;;;15.60;99.90;;;;;;5055110;28;20365;-70
2023/09/23 05:31:13;;;;;;;4.45;4.05;;;15.60;99.90;;;;;;5054792;28;20063;-70
2023/09/23 05:33:41;;;;;;;4.15;3.75;;;15.60;99.90;;;;;;5054627;28;20021;-70
2023/09/23 05:36:06;;;;;;;5.00;4.47;;;15.60;99.90;;;;;;5054553;28;20474;-69
2023/09/23 05:38:36;;;;;;;4.47;4.05;;;15.60;99.90;;;;;;5054526;28;20128;-71
2023/09/23 05:41:05;;;;;;;4.30;3.90;;;15.60;99.90;;;;;;5054407;28;20401;-70
2023/09/23 05:43:30;;;;;;;7.32;4.07;;;15.60;99.90;;;;;;5054599;28;20028;-70
2023/09/23 05:45:56;;;;;;;5.13;4.22;;;15.70;99.90;;;;;;5054770;28;20028;-71
2023/09/23 05:48:22;;;;;;;4.13;3.72;;;15.70;99.90;;;;;;5054651;28;20025;-71
2023/09/23 05:50:49;;;;;;;4.45;4.05;;;15.80;99.90;;;;;;5054559;28;20025;-71
2023/09/23 05:53:15;;;;;;;4.00;3.58;;;15.80;99.90;;;;;;5054478;28;20083;-70
2023/09/23 05:55:40;;;;;;;4.15;3.47;;;15.80;99.90;;;;;;5054189;28;20033;-70
2023/09/23 05:58:06;;;;;;;3.90;3.50;;;15.90;99.90;;;;;;5059683;28;20048;-70
2023/09/23 06:00:32;;;;;;;5.25;3.67;;;15.90;99.90;;;;;;5074428;28;20028;-70
2023/09/23 06:02:58;;;;;;;5.88;3.40;;;15.90;99.90;;;;;;5074622;28;20100;-71
2023/09/23 06:05:24;;;;;;;5.57;3.45;;;15.90;99.90;;;;;;5074339;28;20078;-70
2023/09/23 06:07:49;;;;;;;3.92;3.47;;;16.00;99.90;;;;;;5073937;28;20025;-70
2023/09/23 06:10:15;;;;;;;2.97;2.67;;;16.00;99.90;;;;;;5074307;28;20505;-70
2023/09/23 06:12:41;;;;;;;3.92;2.95;;;15.90;99.90;;;;;;5073811;28;20021;-69
2023/09/23 06:15:08;;;;;;;3.97;3.08;;;16.00;99.90;;;;;;5073920;28;20021;-70
2023/09/23 06:17:37;;;;;;;3.28;2.90;;;15.90;99.90;;;;;;5073865;28;20066;-73
2023/09/23 06:20:03;;;;;;;3.35;2.95;;;15.90;99.90;;;;;;5073780;28;20502;-70
2023/09/23 06:22:28;;;;;;;3.38;3.08;;;15.90;99.90;;;;;;5073818;28;20044;-71
2023/09/23 06:24:55;;;;;;;2.42;2.22;;;15.90;99.90;;;;;;5070029;28;20028;-70
2023/09/23 06:27:20;;;;;;;3.42;2.45;;;15.90;99.90;;;;;;5073922;28;20025;-70
2023/09/23 06:29:46;;;;;;;4.10;2.38;;;15.90;99.90;;;;;;5073762;28;20033;-71
2023/09/23 06:32:13;;;;;;;2.92;2.30;;;15.80;99.90;;;;;;5073703;28;20024;-70
2023/09/23 06:34:38;;;;;;;3.53;2.40;;;15.80;99.90;;;;;;5072937;28;20130;-71
2023/09/23 06:37:04;;;;;;;3.17;2.35;;;15.80;99.90;;;;;;5073812;28;20483;-70
2023/09/23 06:39:30;;;;;;;4.22;2.30;;;15.80;99.90;;;;;;5073512;28;20111;-70
2023/09/23 06:41:56;;;;;;;5.40;2.25;;;15.80;99.90;;;;;;5073211;28;20059;-70
2023/09/23 06:44:22;;;;;;;2.70;2.13;;;15.80;99.90;;;;;;5073568;28;20032;-70
2023/09/23 06:46:49;;;;;;;3.15;1.95;;;15.80;99.90;;;;;;5073275;28;20028;-70
2023/09/23 06:49:16;;;;;;;4.32;2.03;;;15.80;99.90;;;;;;5073472;28;20063;-70
2023/09/23 06:51:41;;;;;;;3.70;2.47;;;15.80;99.90;;;;;;5073084;28;20020;-69
2023/09/23 06:54:07;;;;;;;2.50;1.98;;;15.80;99.90;;;;;;5073478;28;20032;-71
2023/09/23 06:56:34;;;;;;;5.55;2.58;;;15.80;99.90;;;;;;5072453;28;20362;-69
2023/09/23 06:59:01;;;;;;;2.35;2.15;;;15.90;99.90;;;;;;5052659;28;20545;-69
2023/09/23 07:01:27;;;;;;;4.57;2.25;;;16.00;99.90;;;;;;5053187;28;20120;-70
2023/09/23 07:03:53;;;;;;;2.15;1.80;;;16.00;99.90;;;;;;5052416;28;20531;-71
2023/09/23 07:06:19;;;;;;;2.38;1.95;;;16.00;99.90;;;;;;5034842;28;20037;-71
2023/09/23 07:08:45;;;;;;;2.75;2.10;;;16.00;99.90;;;;;;5038591;28;20034;-71
2023/09/23 07:11:14;;;;;;;2.85;1.83;;;16.00;99.90;;;;;;5033197;28;20025;-71
2023/09/23 07:13:40;;;;;;;5.20;2.10;;;16.00;99.90;;;;;;5032489;28;20076;-69
2023/09/23 07:16:06;;;;;;;2.05;1.85;;;16.10;99.90;;;;;;5032786;28;20033;-71
2023/09/23 07:18:32;;;;;;;4.45;2.00;;;16.00;99.90;;;;;;5032837;28;20044;-71
2023/09/23 07:20:58;;;;;;;2.40;1.88;;;16.10;99.90;;;;;;5032545;28;20563;-71
2023/09/23 07:23:24;;;;;;;3.03;1.80;;;16.10;99.90;;;;;;5032955;28;20041;-70
2023/09/23 07:25:50;;;;;;;2.10;1.75;;;16.10;99.90;;;;;;5032576;28;20025;-69
2023/09/23 07:28:16;;;;;;;2.83;2.00;;;16.10;99.90;;;;;;5032850;28;20501;-71
2023/09/23 07:30:42;;;;;;;2.88;1.77;;;16.10;99.90;;;;;;5044182;28;20033;-71
2023/09/23 07:33:08;;;;;;;2.90;2.05;;;16.10;99.90;;;;;;5052472;28;20020;-71
2023/09/23 07:35:34;;;;;;;3.47;1.73;;;16.10;99.90;;;;;;5052765;28;20029;-71
2023/09/23 07:38:01;;;;;;;2.92;2.00;;;16.10;99.90;;;;;;5052233;28;20033;-72
2023/09/23 07:40:28;;;;;;;3.15;2.13;;;16.10;99.90;;;;;;5052579;28;20033;-70
2023/09/23 07:42:54;;;;;;;4.30;2.10;;;16.10;99.90;;;;;;5052171;28;20089;-69
2023/09/23 07:45:20;;;;;;;2.72;1.80;;;16.10;99.90;;;;;;5052537;28;20491;-70
2023/09/23 07:47:45;;;;;;;2.75;1.90;;;16.10;99.90;;;;;;5052268;28;20035;-70
2023/09/23 07:50:11;;;;;;;3.38;2.28;;;16.10;99.90;;;;;;5052440;28;20474;-69
2023/09/23 07:52:37;;;;;;;3.00;2.10;;;16.10;99.90;;;;;;5052523;28;20461;-70
2023/09/23 07:55:04;;;;;;;3.08;2.00;;;16.20;99.90;;;;;;5052113;28;20031;-70
2023/09/23 07:57:30;;;;;;;3.72;2.20;;;16.20;99.90;;;;;;5052405;28;20049;-70
2023/09/23 07:59:56;;;;;;;3.78;2.50;;;16.20;99.90;;;;;;5051922;28;20384;-70
2023/09/23 08:02:22;;;;;;;3.53;2.40;;;16.20;99.90;;;;;;5052813;28;20107;-70
2023/09/23 08:04:47;;;;;;;4.68;2.58;;;16.10;99.90;;;;;;5052124;28;20037;-70
2023/09/23 08:07:13;;;;;;;3.88;2.40;;;16.10;99.90;;;;;;5052141;28;20025;-70
2023/09/23 08:09:38;;;;;;;3.78;2.30;;;16.10;99.90;;;;;;5052288;28;20117;-69
2023/09/23 08:12:04;;;;;;;4.10;2.50;;;16.10;99.90;;;;;;5051851;28;20372;-71
2023/09/23 08:14:30;;;;;;;3.97;2.20;;;16.20;99.90;;;;;;5052615;28;20032;-70
2023/09/23 08:16:56;;;;;;;4.05;2.80;;;16.20;99.90;;;;;;5052108;28;20068;-70
2023/09/23 08:19:23;;;;;;;3.03;2.55;;;16.20;99.90;;;;;;5052893;28;20104;-70
2023/09/23 08:21:49;;;;;;;4.22;2.50;;;16.20;99.90;;;;;;5055774;28;20037;-70
2023/09/23 08:24:14;;;;;;;5.22;3.00;;;16.20;99.90;;;;;;5056159;28;20116;-70
2023/09/23 08:26:40;;;;;;;4.60;2.88;;;16.20;99.90;;;;;;5055934;28;20099;-70
2023/09/23 08:29:06;;;;;;;3.45;2.70;;;16.30;99.90;;;;;;5055609;28;20032;-70
2023/09/23 08:31:31;;;;;;;7.18;3.38;;;16.30;99.90;;;;;;5055671;28;20028;-70
2023/09/23 08:33:58;;;;;;;4.47;3.20;;;16.30;99.90;;;;;;5055581;28;20025;-70
2023/09/23 08:36:24;;;;;;;4.13;2.90;;;16.30;99.90;;;;;;5055595;28;20024;-70
2023/09/23 08:38:50;;;;;;;4.50;3.05;;;16.30;99.90;;;;;;5055437;28;20025;-70
2023/09/23 08:41:21;;;;;;;5.70;3.25;;;16.40;99.90;;;;;;5055414;28;20033;-70
2023/09/23 08:43:50;;;;;;;5.18;3.33;;;16.50;99.90;;;;;;5055520;28;20140;-70
2023/09/23 08:46:18;;;;;;;3.70;2.85;;;16.50;99.90;;;;;;5055534;28;20033;-69
2023/09/23 08:48:43;;;;;;;5.20;2.83;;;16.50;99.90;;;;;;5055712;28;20533;-70
2023/09/23 08:51:12;;;;;;;5.70;3.50;;;16.60;99.90;;;;;;5055262;28;20136;-72
2023/09/23 08:53:41;;;;;;;7.13;3.45;;;16.60;99.90;;;;;;5055495;28;20033;-71
2023/09/23 08:56:07;;;;;;;6.18;3.33;;;16.70;99.90;;;;;;5055126;28;20032;-71
2023/09/23 08:58:33;;;;;;;5.50;3.50;;;16.80;99.90;;;;;;5055236;28;20481;-70
2023/09/23 09:00:58;;;;;;;5.00;3.70;;;16.90;99.90;;;;;;5055138;28;20033;-70
2023/09/23 09:03:25;;;;;;;4.68;3.83;;;17.00;99.90;;;;;;5055760;28;20032;-71
2023/09/23 09:05:52;;;;;;;5.85;3.75;;;17.00;99.90;;;;;;5037167;28;20108;-70
2023/09/23 09:08:18;;;;;;;5.78;3.88;;;17.00;99.90;;;;;;5055498;28;20359;-70
2023/09/23 09:10:44;;;;;;;6.57;3.78;;;17.00;99.90;;;;;;5055342;28;20025;-70
2023/09/23 09:13:10;;;;;;;4.45;3.55;;;17.10;99.90;;;;;;5054678;28;20112;-70
2023/09/23 09:15:37;;;;;;;4.65;3.10;;;17.10;99.90;;;;;;5051822;28;20028;-70
2023/09/23 09:18:04;;;;;;;5.43;3.70;;;17.10;99.90;;;;;;5054866;28;20021;-69
2023/09/23 09:20:30;;;;;;;4.57;3.42;;;17.20;99.90;;;;;;5054872;28;20040;-70
2023/09/23 09:22:55;;;;;;;4.90;3.65;;;17.20;99.90;;;;;;5054631;28;20420;-71
2023/09/23 09:25:21;;;;;;;4.65;3.45;;;17.30;99.90;;;;;;5055034;28;20143;-70
2023/09/23 09:27:50;;;;;;;4.03;3.28;;;17.40;99.90;;;;;;5036714;28;20029;-72
2023/09/23 09:30:16;;;;;;;5.35;3.70;;;17.40;99.90;;;;;;5053294;28;20041;-71
2023/09/23 09:32:44;;;;;;;5.90;2.90;;;17.50;99.90;;;;;;5035392;28;20041;-70
2023/09/23 09:35:17;;;;;;;5.65;3.10;;;17.50;99.90;;;;;;5034657;28;20374;-70
2023/09/23 09:37:45;;;;;;;7.05;3.38;;;17.50;99.90;;;;;;5035196;28;20032;-69
2023/09/23 09:40:23;;;;;;;4.70;2.88;;;17.50;99.90;;;;;;5034773;28;20033;-70
2023/09/23 09:42:57;;;;;;;3.55;2.42;;;17.50;99.90;;;;;;5034617;28;20068;-72
2023/09/23 09:45:23;;;;;;;7.22;2.58;;;17.60;99.90;;;;;;5034752;28;20125;-70
2023/09/23 09:47:51;;;;;;;4.10;2.95;;;17.50;99.90;;;;;;5034305;28;20034;-73
2023/09/23 09:50:16;;;;;;;4.90;2.78;;;17.50;99.90;;;;;;5034842;28;20033;-70
2023/09/23 09:52:46;;;;;;;4.07;2.78;;;17.50;99.90;;;;;;5034837;28;20036;-70
2023/09/23 09:55:18;;;;;;;3.80;2.60;;;17.50;99.90;;;;;;5034400;28;20026;-70
2023/09/23 09:57:45;;;;;;;4.55;2.58;;;17.50;99.90;;;;;;5034357;28;20100;-70
2023/09/23 10:00:27;;;;;;;4.55;2.78;;;17.50;99.90;;;;;;5033702;28;20033;-70
2023/09/23 10:03:00;;;;;;;3.40;2.33;;;17.50;99.90;;;;;;5034064;28;20037;-70
2023/09/23 10:05:40;;;;;;;3.53;2.28;;;17.40;99.90;;;;;;5034470;28;20088;-70
2023/09/23 10:08:15;;;;;;;3.97;2.50;;;17.40;99.90;;;;;;5034024;28;20492;-71
2023/09/23 10:10:48;;;;;;;5.30;2.95;;;17.50;99.90;;;;;;5034280;28;20540;-70
2023/09/23 10:13:22;;;;;;;3.38;2.28;;;17.40;99.90;;;;;;5036271;28;20112;-70
2023/09/23 10:15:48;;;;;;;5.07;2.53;;;17.40;99.90;;;;;;5034290;28;20029;-70
2023/09/23 10:18:18;;;;;;;3.22;2.92;;;17.40;99.90;;;;;;5033826;28;20382;-70
2023/09/23 10:20:52;;;;;;;6.57;3.03;;;17.40;99.90;;;;;;5034090;28;20319;-69
2023/09/23 10:23:20;;;;;;;4.40;2.80;;;17.50;99.90;;;;;;5033939;28;20258;-69
2023/09/23 10:25:52;;;;;;;3.85;3.10;;;17.50;99.90;;;;;;5034100;28;20064;-69
2023/09/23 10:28:26;;;;;;;3.45;2.90;;;17.50;99.90;;;;;;5034065;28;20474;-69
2023/09/23 10:31:05;;;;;;;4.65;3.00;;;17.50;99.90;;;;;;5034015;28;20041;-70
2023/09/23 10:33:36;;;;;;;3.35;2.65;;;17.50;99.90;;;;;;5034090;28;20371;-70
2023/09/23 10:36:03;;;;;;;4.63;2.92;;;17.60;99.90;;;;;;5033415;28;20033;-71
2023/09/23 10:38:37;;;;;;;3.15;2.40;;;17.60;99.90;;;;;;5033522;28;20088;-70
2023/09/23 10:41:04;;;;;;;3.70;2.85;;;17.60;99.90;;;;;;5032265;28;20485;-71
2023/09/23 10:43:31;;;;;;;3.88;2.70;;;17.70;99.90;;;;;;5033680;28;20553;-70
2023/09/23 10:45:58;;;;;;;2.97;2.45;;;17.70;99.90;;;;;;5033161;28;20033;-71
2023/09/23 10:48:25;;;;;;;3.17;2.15;;;17.80;99.50;;;;;;5033516;28;20030;-70
2023/09/23 10:50:51;;;;;;;2.50;2.30;;;17.80;99.30;;;;;;5033490;28;20029;-70
2023/09/23 10:53:18;;;;;;;2.85;2.65;;;17.80;99.00;;;;;;5032912;28;20427;-70
2023/09/23 10:55:45;;;;;;;4.15;2.78;;;17.80;98.90;;;;;;5033180;28;20056;-71
2023/09/23 10:58:11;;;;;;;5.50;2.83;;;17.90;98.60;;;;;;5033159;28;20045;-71
2023/09/23 11:00:37;;;;;;;3.80;2.53;;;17.90;98.10;;;;;;5015485;28;20489;-71
2023/09/23 11:03:06;;;;;;;4.25;2.65;;;18.00;98.30;;;;;;5033155;28;20478;-71
2023/09/23 11:05:34;;;;;;;4.43;2.42;;;18.00;98.30;;;;;;5033470;28;20033;-71
2023/09/23 11:08:01;;;;;;;2.92;2.63;;;18.00;98.90;;;;;;5014854;28;20029;-70
2023/09/23 11:10:27;;;;;;;4.40;2.97;;;18.10;98.20;;;;;;5033054;28;20037;-71
2023/09/23 11:12:56;;;;;;;3.58;2.70;;;18.10;97.80;;;;;;5033130;28;20351;-71
2023/09/23 11:15:22;;;;;;;5.03;2.50;;;18.10;97.60;;;;;;5035329;28;20033;-72
2023/09/23 11:17:47;;;;;;;3.25;2.30;;;18.10;96.90;;;;;;5032696;28;20025;-71
2023/09/23 11:20:13;;;;;;;5.07;2.22;;;18.10;97.00;;;;;;5032346;28;20029;-71
2023/09/23 11:22:43;;;;;;;3.95;2.55;;;18.10;97.00;;;;;;5032835;28;20033;-70
2023/09/23 11:25:09;;;;;;;3.28;2.72;;;18.10;97.50;;;;;;5042329;28;20509;-70
2023/09/23 11:27:35;;;;;;;4.65;2.92;;;18.10;97.70;;;;;;5052735;28;20086;-70
2023/09/23 11:30:01;;;;;;;3.97;2.80;;;18.10;97.60;;;;;;5052000;28;20033;-71
2023/09/23 11:32:27;;;;;;;3.50;3.03;;;18.20;97.30;;;;;;5052644;28;20033;-70
2023/09/23 11:34:54;;;;;;;3.10;2.80;;;18.20;97.50;;;;;;5052655;28;20032;-69
2023/09/23 11:37:23;;;;;;;3.70;2.55;;;18.10;97.00;;;;;;5052295;28;20063;-71
2023/09/23 11:39:49;;;;;;;4.07;3.10;;;18.10;96.90;;;;;;5052419;28;20064;-70
2023/09/23 11:42:15;;;;;;;3.50;2.80;;;18.10;97.30;;;;;;5052169;28;20355;-69
2023/09/23 11:44:40;;;;;;;4.10;2.88;;;18.10;97.70;;;;;;5052659;28;20032;-70
2023/09/23 11:47:06;;;;;;;4.63;2.80;;;18.20;97.60;;;;;;5052250;28;20036;-70
2023/09/23 11:49:32;;;;;;;3.95;2.75;;;18.10;97.40;;;;;;5052271;28;20493;-70
2023/09/23 11:51:58;;;;;;;3.65;2.78;;;18.10;97.80;;;;;;5052273;28;20033;-70
2023/09/23 11:54:24;;;;;;;5.30;3.20;;;18.20;97.20;;;;;;5052447;28;20386;-71
2023/09/23 11:56:50;;;;;;;3.55;2.40;;;18.20;97.10;;;;;;5052333;28;20060;-69
2023/09/23 11:59:20;;;;;;;4.13;2.60;;;18.20;97.30;;;;;;5051950;28;20080;-70
2023/09/23 12:01:47;;;;;;;3.50;2.78;;;18.30;97.30;;;;;;5052265;28;20063;-70
2023/09/23 12:04:13;;;;;;;3.20;2.28;;;18.30;96.20;;;;;;5048736;28;20076;-69
2023/09/23 12:06:39;;;;;;;5.03;2.95;;;18.30;96.10;;;;;;5052232;28;20043;-70
2023/09/23 12:09:09;;;;;;;2.80;2.47;;;18.30;95.90;;;;;;5051823;28;20025;-70
2023/09/23 12:11:35;;;;;;;2.88;2.33;;;18.30;96.00;;;;;;5052479;28;20037;-70
2023/09/23 12:14:01;;;;;;;4.82;2.40;;;18.40;96.30;;;;;;5052017;28;20079;-71
2023/09/23 12:16:26;;;;;;;2.50;2.10;;;18.40;96.00;;;;;;5052245;28;20025;-71
2023/09/23 12:18:52;;;;;;;6.97;2.50;;;18.40;96.30;;;;;;5052292;28;20029;-70
2023/09/23 12:21:18;;;;;;;2.90;2.00;;;18.40;96.10;;;;;;5051888;28;20433;-70
2023/09/23 12:23:43;;;;;;;2.72;2.45;;;18.40;96.10;;;;;;5051984;28;20470;-71
2023/09/23 12:26:12;;;;;;;3.38;2.47;;;18.40;96.00;;;;;;5051730;28;20029;-70
2023/09/23 12:28:38;;;;;;;2.33;2.03;;;18.40;95.90;;;;;;5052090;28;20032;-70
2023/09/23 12:31:04;;;;;;;2.53;2.05;;;18.40;95.50;;;;;;5051690;28;20052;-70
2023/09/23 12:33:30;;;;;;;2.72;2.13;;;18.40;95.10;;;;;;5051706;28;20114;-70
2023/09/23 12:35:56;;;;;;;3.22;2.20;;;18.40;95.40;;;;;;5052090;28;20032;-69
2023/09/23 12:38:22;;;;;;;2.53;1.77;;;18.40;95.30;;;;;;5051258;28;20422;-69
2023/09/23 12:40:47;;;;;;;3.20;2.50;;;18.40;95.30;;;;;;5051708;28;20122;-70
2023/09/23 12:43:13;;;;;;;3.25;2.38;;;18.40;95.60;;;;;;5051471;28;20025;-70
2023/09/23 12:45:41;;;;;;;4.72;2.70;;;18.40;95.80;;;;;;5051681;28;20457;-71
2023/09/23 12:48:10;;;;;;;3.80;2.40;;;18.40;95.80;;;;;;5051587;28;20052;-71